Tuesday, July 28, 2015, 5:43 PM EDT

KSHD, Staunton / Shenandoah

Location: Weyers Cave, VA, United States Lat: 38.267
Local Time: 5:43 PM EDT (21:43 GMT) Lon: -78.9
Time Zone: US/Eastern Elev: 1200 ft

Show me the last for .
Show Decoded

2015-07-28 17:15 METAR KSHD 282115Z AUTO 06011KT 10SM CLR 30/22 A3001 RMK AO2 T03020223 =
2015-07-28 16:55 METAR KSHD 282055Z AUTO 00000KT 10SM CLR 31/21 A3001 RMK AO2 T03110211 =
2015-07-28 16:35 METAR KSHD 282035Z AUTO 00000KT 10SM CLR 31/21 A3000 RMK AO2 T03080212 =
2015-07-28 16:15 METAR KSHD 282015Z AUTO 00000KT 10SM CLR 31/21 A3002 RMK AO2 T03090212 =
2015-07-28 15:55 METAR KSHD 281955Z AUTO 17003KT 10SM SCT038 SCT047 31/21 A3002 RMK AO2 T03070213
                 =
2015-07-28 15:35 METAR KSHD 281935Z AUTO 00000KT 10SM SCT040 31/21 A3002 RMK AO2 T03090209 =
2015-07-28 15:15 METAR KSHD 281915Z AUTO 00000KT 10SM SCT038 31/20 A3002 RMK AO2 LTG DSNT S
                 T03110204 =
2015-07-28 14:55 METAR KSHD 281855Z AUTO 03003KT 10SM SCT028 BKN035 BKN050 32/22 A3002 RMK AO2
                 T03180218 =
2015-07-28 14:35 METAR KSHD 281835Z AUTO 15007KT 10SM SCT028 SCT046 BKN050 30/22 A3002 RMK AO2
                 T03020221 =
2015-07-28 14:15 METAR KSHD 281815Z AUTO 18004KT 10SM SCT032 SCT046 BKN075 31/22 A3003 RMK AO2
                 T03090219 =
2015-07-28 13:55 METAR KSHD 281755Z AUTO 14004KT 10SM SCT038 SCT045 31/22 A3004 RMK AO2 T03080218
                 10309 20215 =
2015-07-28 13:35 METAR KSHD 281735Z AUTO 14003KT 10SM SCT038 31/22 A3005 RMK AO2 T03070216 =
2015-07-28 13:15 METAR KSHD 281715Z AUTO 09005KT 10SM SCT026 SCT034 30/22 A3005 RMK AO2 T03020218
                 =
2015-07-28 12:55 METAR KSHD 281655Z AUTO 00000KT 10SM SCT024 SCT030 BKN037 30/22 A3006 RMK AO2
                 T02980220 =
2015-07-28 12:35 METAR KSHD 281635Z AUTO 04003KT 10SM BKN024 OVC031 29/22 A3007 RMK AO2 T02850219
                 =
2015-07-28 12:15 METAR KSHD 281615Z AUTO 00000KT 10SM BKN022 BKN036 28/22 A3007 RMK AO2 T02840221
                 =
2015-07-28 11:55 METAR KSHD 281555Z AUTO 00000KT 10SM SCT018 28/22 A3008 RMK AO2 T02840217 =
2015-07-28 11:35 METAR KSHD 281535Z AUTO 34003KT 10SM BKN018 28/22 A3008 RMK AO2 T02830219 =
2015-07-28 11:15 METAR KSHD 281515Z AUTO 05003KT 10SM BKN018 27/22 A3008 RMK AO2 T02710218 =
2015-07-28 10:55 METAR KSHD 281455Z AUTO 00000KT 10SM BKN016 27/22 A3008 RMK AO2 T02650216 =
2015-07-28 10:35 METAR KSHD 281435Z AUTO 06003KT 10SM BKN014 27/22 A3008 RMK AO2 T02680217 =
2015-07-28 10:15 METAR KSHD 281415Z AUTO 00000KT 10SM SCT016 26/22 A3008 RMK AO2 T02630217 =
2015-07-28 09:55 METAR KSHD 281355Z AUTO 00000KT 10SM BKN016 25/21 A3008 RMK AO2 T02510214 =
2015-07-28 09:35 METAR KSHD 281335Z AUTO 00000KT 10SM OVC016 24/21 A3009 RMK AO2 T02410212 =
2015-07-28 09:15 METAR KSHD 281315Z AUTO 00000KT 7SM BKN004 OVC016 23/21 A3009 RMK AO2 T02320213
                 =
2015-07-28 08:55 METAR KSHD 281255Z AUTO 00000KT 7SM OVC004 22/22 A3009 RMK AO2 T02220215 =
2015-07-28 08:35 METAR KSHD 281235Z AUTO 00000KT 2SM BR OVC002 22/21 A3008 RMK AO2 VIS 1V3
                 T02200212 =
2015-07-28 08:15 METAR KSHD 281215Z AUTO 04003KT 2SM BR OVC002 22/21 A3008 RMK AO2 VIS 1 1/2V3
                 T02170209 =
2015-07-28 07:55 METAR KSHD 281155Z AUTO 00000KT 1/4SM FG OVC002 22/21 A3008 RMK AO2 T02150206
                 10217 20197 =
2015-07-28 07:35 METAR KSHD 281135Z AUTO 08003KT M1/4SM FG OVC002 21/20 A3008 RMK AO2 T02120204 =
2015-07-28 07:15 METAR KSHD 281115Z AUTO 00000KT M1/4SM FG OVC002 22/21 A3008 RMK AO2 T02150205 =
2015-07-28 06:55 METAR KSHD 281055Z AUTO 00000KT M1/4SM FG OVC002 21/20 A3007 RMK AO2 T02110202 =
2015-07-28 06:35 METAR KSHD 281035Z AUTO 00000KT 1/2SM FG OVC002 21/20 A3007 RMK AO2 T02100200 =
2015-07-28 06:15 METAR KSHD 281015Z AUTO 00000KT 5SM BR OVC004 21/20 A3007 RMK AO2 T02050195 =
2015-07-28 05:55 METAR KSHD 280955Z AUTO 00000KT 1SM BR OVC004 20/19 A3006 RMK AO2 T02000189 =
2015-07-28 05:35 METAR KSHD 280935Z AUTO 00000KT 5SM BR CLR 20/19 A3005 RMK AO2 T02030192 =
2015-07-28 05:15 METAR KSHD 280915Z AUTO 00000KT 4SM BR CLR 21/19 A3005 RMK AO2 T02050193 =
2015-07-28 04:35 METAR KSHD 280835Z AUTO 00000KT 5SM BR CLR 21/20 A3005 RMK AO2 T02120200 =
2015-07-28 04:15 METAR KSHD 280815Z AUTO 00000KT 5SM BR SCT030 22/20 A3005 RMK AO2 T02150201 =
2015-07-28 03:55 METAR KSHD 280755Z AUTO 00000KT 7SM BKN030 BKN045 BKN060 22/20 A3006 RMK AO2
                 T02150202 =
2015-07-28 03:35 METAR KSHD 280735Z AUTO 00000KT 7SM OVC030 22/20 A3007 RMK AO2 LTG DSNT SE
                 T02150202 =
2015-07-28 03:15 METAR KSHD 280715Z AUTO 00000KT 5SM BR BKN030 BKN050 21/20 A3007 RMK AO2 LTG
                 DSNT SE AND S T02090196 =
2015-07-28 02:55 METAR KSHD 280655Z AUTO 00000KT 5SM VCTS BR CLR 21/20 A3007 RMK AO2 T02100196 =
2015-07-28 02:35 METAR KSHD 280635Z AUTO 00000KT 7SM CLR 21/20 A3007 RMK AO2 T02110197 =
2015-07-28 01:35 METAR KSHD 280535Z AUTO 00000KT 10SM SCT060 22/20 A3008 RMK AO2 T02210204 =
2015-07-28 01:15 METAR KSHD 280515Z AUTO 00000KT 10SM BKN060 23/20 A3008 RMK AO2 T02250204 =
2015-07-28 00:55 METAR KSHD 280455Z AUTO 00000KT 10SM BKN060 23/21 A3008 RMK AO2 T02270206 =
2015-07-28 00:35 METAR KSHD 280435Z AUTO 00000KT 10SM SCT028 BKN041 OVC050 23/21 A3008 RMK AO2
                 T02250205 =
2015-07-28 00:15 METAR KSHD 280415Z AUTO 00000KT 10SM OVC028 23/21 A3008 RMK AO2 T02300206 =
2015-07-27 23:55 METAR KSHD 280355Z AUTO 00000KT 10SM OVC030 23/21 A3008 RMK AO2 T02250205 =
2015-07-27 23:35 METAR KSHD 280335Z AUTO 00000KT 10SM BKN032 OVC040 23/21 A3008 RMK AO2 T02250205
                 =
2015-07-27 23:15 METAR KSHD 280315Z AUTO 00000KT 10SM BKN040 BKN048 22/21 A3008 RMK AO2 LTG DSNT
                 SW T02240205 =
2015-07-27 22:55 METAR KSHD 280255Z AUTO 00000KT 10SM SCT040 SCT048 22/20 A3007 RMK AO2 T02150197
                 =
2015-07-27 22:35 METAR KSHD 280235Z AUTO 00000KT 10SM SCT040 22/20 A3007 RMK AO2 T02190199 =
2015-07-27 21:55 METAR KSHD 280155Z AUTO 00000KT 10SM CLR 23/21 A3006 RMK AO2 T02320205 =
2015-07-27 21:35 METAR KSHD 280135Z AUTO 00000KT 10SM CLR 24/21 A3005 RMK AO2 T02360205 =
2015-07-27 20:55 METAR KSHD 280055Z AUTO 00000KT 10SM CLR 24/21 A3003 RMK AO2 T02420205 =
2015-07-27 20:15 METAR KSHD 280015Z AUTO 29003KT 10SM CLR 25/21 A3005 RMK AO2 T02510210 =
2015-07-27 19:55 METAR KSHD 272355Z AUTO 00000KT 10SM CLR 26/21 A3004 RMK AO2 T02560209 10331
                 20251 =
2015-07-27 19:35 METAR KSHD 272335Z AUTO 00000KT 10SM CLR 26/21 A3004 RMK AO2 LTG DSNT SE
                 T02620207 =
2015-07-27 19:15 METAR KSHD 272315Z AUTO 21004KT 10SM CLR 26/21 A3003 RMK AO2 LTG DSNT W AND NW
                 T02640208 =
2015-07-27 18:55 METAR KSHD 272255Z AUTO 19005KT 10SM CLR 27/20 A3003 RMK AO2 LTG DSNT W
                 T02720204 =
2015-07-27 18:35 METAR KSHD 272235Z AUTO 23004KT 10SM SCT120 28/19 A3003 RMK AO2 LTG DSNT SE AND
                 W T02770194 =
2015-07-27 18:15 METAR KSHD 272215Z AUTO 00000KT 10SM BKN120 27/22 A3003 RMK AO2 LTG DSNT NE SW
                 AND W T02730215 =

Support USWX by starting your Amazon purchase here.